パラオ の空港の天気 - METARとTAF

パラオ国際空港 ( PTRO / ROR ) - パラオ アイライ州
飛行場実況気象(Metar)
観測時間06/24 18:50 PWT (06/24 09:50 UTC)
風向・風速西北西 3m/s
視程10km以上
天気現象
全天の4割程度の雲 雲底高度 490m
全天の8割程度の雲 雲底高度 3660m
全天の8割程度の雲 雲底高度 9140m
気温26℃
湿度79%
気圧1011hPa
METARPTRO 240950Z 29006KT 14SM SCT016TCU BKN120 BKN300 26/22 A2985 RMK TCU ALQDS
過去の天気等 Google飛行場航空写真 Wunderground天気予報

過去48時間のMETAR

飛行場予報(TAF)
発表時間: 6/24 14:27 PWT (6/24 05:27 UTC)
予報対象時間: 24日15時 PWT ~ 25日15時 PWT
風向・風速南西 4m/s
視程10km以上
天気現象周辺でしゅう雨
全天の4割程度の雲 雲底高度 490m
全天の8割程度の雲 雲底高度 3660m
PTRO 240527Z 2406/2506 23008KT P6SM VCSH SCT016 BKN120